createdAt,value
2023-02-24T00:02:00.289Z,8.40
2023-02-24T00:04:45.442Z,8.40
2023-02-24T00:07:16.894Z,8.40
2023-02-24T00:09:46.996Z,8.40
2023-02-24T00:12:15.281Z,8.30
2023-02-24T00:14:44.232Z,8.30
2023-02-24T00:17:14.409Z,8.40
2023-02-24T00:19:41.276Z,8.50
2023-02-24T00:22:09.384Z,8.40
2023-02-24T00:24:36.418Z,8.50
2023-02-24T00:27:08.554Z,8.40
2023-02-24T00:29:37.621Z,8.40
2023-02-24T00:32:08.228Z,8.50
2023-02-24T00:34:36.834Z,8.50
2023-02-24T00:37:07.002Z,8.60
2023-02-24T00:39:35.127Z,8.60
2023-02-24T00:42:06.079Z,8.70
2023-02-24T00:44:35.289Z,8.70
2023-02-24T00:47:04.867Z,8.60
2023-02-24T00:49:32.700Z,8.70
2023-02-24T00:52:00.053Z,8.70
2023-02-24T00:54:28.299Z,8.60
2023-02-24T00:56:55.628Z,8.70
2023-02-24T00:59:24.054Z,8.70
2023-02-24T01:01:52.378Z,8.70
2023-02-24T01:04:20.076Z,8.70
2023-02-24T01:06:50.739Z,8.70
2023-02-24T01:09:19.971Z,8.60
2023-02-24T01:12:09.611Z,8.70
2023-02-24T01:14:36.353Z,8.60
2023-02-24T01:17:04.988Z,8.70
2023-02-24T01:19:33.785Z,8.70
2023-02-24T01:22:06.639Z,8.80
2023-02-24T01:24:38.376Z,8.70
2023-02-24T01:27:06.522Z,8.60
2023-02-24T01:29:33.762Z,8.50
2023-02-24T01:32:00.485Z,8.50
2023-02-24T01:34:28.080Z,8.50
2023-02-24T01:36:55.056Z,8.50
2023-02-24T01:39:21.882Z,8.50
2023-02-24T01:41:50.639Z,8.40
2023-02-24T01:44:18.144Z,8.50
2023-02-24T01:46:47.096Z,8.40
2023-02-24T01:49:51.117Z,8.40
2023-02-24T01:55:01.111Z,8.40
2023-02-24T01:57:31.617Z,8.40
2023-02-24T02:00:12.480Z,8.40
2023-02-24T02:03:23.320Z,8.30
2023-02-24T02:12:11.151Z,8.40
2023-02-24T02:18:13.834Z,8.30
2023-02-24T02:24:09.155Z,8.30
2023-02-24T02:27:19.308Z,8.30
2023-02-24T02:36:19.824Z,8.30
2023-02-24T02:39:31.727Z,8.30
2023-02-24T02:42:39.889Z,8.30
2023-02-24T02:45:58.274Z,8.30
2023-02-24T02:49:01.730Z,8.30
2023-02-24T02:52:03.349Z,8.30
2023-02-24T02:54:54.679Z,8.30
2023-02-24T02:57:34.972Z,8.30
2023-02-24T03:06:34.959Z,8.30
2023-02-24T03:09:22.370Z,8.30
2023-02-24T03:15:12.242Z,8.30
2023-02-24T03:17:58.213Z,8.30
2023-02-24T03:20:41.970Z,8.40
2023-02-24T03:23:17.395Z,8.40
2023-02-24T03:26:08.137Z,8.40
2023-02-24T03:28:42.732Z,8.40
2023-02-24T03:31:18.619Z,8.40
2023-02-24T03:33:57.320Z,8.40
2023-02-24T03:36:24.271Z,8.30
2023-02-24T03:38:51.646Z,8.40
2023-02-24T03:41:19.342Z,8.30
2023-02-24T03:43:50.281Z,8.40
2023-02-24T03:46:18.023Z,8.40
2023-02-24T03:48:51.952Z,8.30
2023-02-24T03:51:23.468Z,8.30
2023-02-24T03:54:10.009Z,8.20
2023-02-24T03:57:08.409Z,8.20
2023-02-24T03:59:38.541Z,8.30
2023-02-24T04:02:14.817Z,8.30
2023-02-24T04:05:00.627Z,8.30
2023-02-24T04:08:26.625Z,8.20
2023-02-24T04:11:06.608Z,8.20
2023-02-24T04:13:49.370Z,8.20
2023-02-24T04:16:17.613Z,8.20
2023-02-24T04:18:51.195Z,8.10
2023-02-24T04:21:20.836Z,8.00
2023-02-24T04:23:48.697Z,8.10
2023-02-24T04:26:18.166Z,8.20
2023-02-24T04:28:48.739Z,8.20
2023-02-24T04:31:20.810Z,8.20
2023-02-24T04:33:50.516Z,8.20
2023-02-24T04:36:19.992Z,8.10
2023-02-24T04:38:49.560Z,8.10
2023-02-24T04:41:23.747Z,8.20
2023-02-24T04:43:51.125Z,8.20
2023-02-24T04:46:20.407Z,8.20
2023-02-24T04:48:48.156Z,8.20
2023-02-24T04:51:15.092Z,8.10
2023-02-24T04:53:42.344Z,8.00
2023-02-24T04:56:09.847Z,8.00
2023-02-24T04:58:39.185Z,8.00
2023-02-24T05:01:10.714Z,8.10
2023-02-24T05:03:42.382Z,8.00
2023-02-24T05:06:15.156Z,8.00
2023-02-24T05:08:42.441Z,8.00
2023-02-24T05:11:16.431Z,8.00
2023-02-24T05:13:46.646Z,7.90
2023-02-24T05:16:18.195Z,7.90
2023-02-24T05:18:45.231Z,7.90
2023-02-24T05:21:35.176Z,7.80
2023-02-24T05:24:07.128Z,7.90
2023-02-24T05:26:41.892Z,7.90
2023-02-24T05:29:11.690Z,7.90
2023-02-24T05:31:38.896Z,7.90
2023-02-24T05:34:08.454Z,7.90
2023-02-24T05:36:40.930Z,7.80
2023-02-24T05:39:12.195Z,7.80
2023-02-24T05:41:42.213Z,7.80
2023-02-24T05:44:13.946Z,7.70
2023-02-24T05:46:44.772Z,7.80
2023-02-24T05:49:23.863Z,7.80
2023-02-24T05:51:55.824Z,7.90
2023-02-24T05:54:31.722Z,7.90
2023-02-24T05:57:12.683Z,7.80
2023-02-24T05:59:41.384Z,7.80
2023-02-24T06:02:11.502Z,7.70
2023-02-24T06:04:54.156Z,7.80
2023-02-24T06:07:25.074Z,7.70
2023-02-24T06:09:58.742Z,7.70
2023-02-24T06:12:28.733Z,7.70
2023-02-24T06:14:58.444Z,7.80
2023-02-24T06:17:25.783Z,7.80
2023-02-24T06:19:54.333Z,7.80
2023-02-24T06:22:23.396Z,7.80
2023-02-24T06:24:50.799Z,7.70
2023-02-24T06:27:19.754Z,7.70
2023-02-24T06:29:51.393Z,7.70
2023-02-24T06:32:20.784Z,7.80
2023-02-24T06:35:04.992Z,7.80
2023-02-24T06:37:32.680Z,7.80
2023-02-24T06:39:59.601Z,7.80
2023-02-24T06:42:26.798Z,7.80
2023-02-24T06:44:55.219Z,7.90
2023-02-24T06:47:23.061Z,7.80
2023-02-24T06:49:50.183Z,7.90
2023-02-24T06:52:19.576Z,7.90
2023-02-24T06:54:50.453Z,7.80
2023-02-24T06:57:17.978Z,7.80
2023-02-24T06:59:46.552Z,7.80
2023-02-24T07:02:13.677Z,7.90
2023-02-24T07:04:46.345Z,7.90
2023-02-24T07:07:25.664Z,7.90
2023-02-24T07:09:52.481Z,7.90
2023-02-24T07:12:21.261Z,7.90
2023-02-24T07:17:18.971Z,8.00
2023-02-24T07:19:46.142Z,8.00
2023-02-24T07:22:15.219Z,8.00
2023-02-24T07:24:46.277Z,8.00
2023-02-24T07:27:22.100Z,8.00
2023-02-24T07:29:52.668Z,8.00
2023-02-24T07:32:22.446Z,8.00
2023-02-24T07:34:49.335Z,8.00
2023-02-24T07:37:16.878Z,8.00
2023-02-24T07:39:43.850Z,8.10
2023-02-24T07:42:13.486Z,8.10
2023-02-24T07:44:40.208Z,8.10
2023-02-24T07:47:08.362Z,8.10
2023-02-24T07:49:36.757Z,8.10
2023-02-24T07:52:03.940Z,8.10
2023-02-24T07:54:31.423Z,8.10
2023-02-24T07:56:59.815Z,8.10
2023-02-24T07:59:29.660Z,8.00
2023-02-24T08:01:56.906Z,8.00
2023-02-24T08:04:27.270Z,8.00
2023-02-24T08:06:58.868Z,8.00
2023-02-24T08:09:48.160Z,8.00
2023-02-24T08:12:22.248Z,8.00
2023-02-24T08:14:51.936Z,8.00
2023-02-24T08:17:24.333Z,8.00
2023-02-24T08:20:15.563Z,8.00
2023-02-24T08:22:47.209Z,7.90
2023-02-24T08:25:19.253Z,7.90
2023-02-24T08:28:06.366Z,8.00
2023-02-24T08:30:38.931Z,7.90
2023-02-24T08:33:08.189Z,7.90
2023-02-24T08:35:38.637Z,7.90
2023-02-24T08:38:07.775Z,7.90
2023-02-24T08:40:40.033Z,7.90
2023-02-24T08:43:31.129Z,8.00
2023-02-24T08:46:18.318Z,8.00
2023-02-24T08:48:48.740Z,8.00
2023-02-24T08:51:23.140Z,8.00
2023-02-24T08:53:53.883Z,8.00
2023-02-24T08:56:27.118Z,7.90
2023-02-24T08:59:08.163Z,7.90
2023-02-24T09:01:40.015Z,8.00
2023-02-24T09:04:12.706Z,7.90
2023-02-24T09:06:43.944Z,7.90
2023-02-24T09:09:23.488Z,8.00
2023-02-24T09:11:58.558Z,8.10
2023-02-24T09:14:38.394Z,8.10
2023-02-24T09:17:11.141Z,8.10
2023-02-24T09:19:40.486Z,8.10
2023-02-24T09:22:21.086Z,8.10
2023-02-24T09:24:51.104Z,8.20
2023-02-24T09:27:17.909Z,8.20
2023-02-24T09:29:50.614Z,8.10
2023-02-24T09:32:17.438Z,8.30
2023-02-24T09:34:45.333Z,8.20
2023-02-24T09:37:25.787Z,8.30
2023-02-24T09:39:55.757Z,8.30
2023-02-24T09:42:28.994Z,8.30
2023-02-24T09:45:00.696Z,8.30
2023-02-24T09:47:40.723Z,8.40
2023-02-24T09:50:25.202Z,8.40
2023-02-24T09:53:17.389Z,8.50
2023-02-24T09:56:06.673Z,8.50
2023-02-24T09:58:43.982Z,8.70
2023-02-24T10:01:23.560Z,8.60
2023-02-24T10:03:51.723Z,8.70
2023-02-24T10:06:26.728Z,8.70
2023-02-24T10:09:11.456Z,8.70
2023-02-24T10:12:04.592Z,8.80
2023-02-24T10:14:44.586Z,8.90
2023-02-24T10:17:23.585Z,8.80
2023-02-24T10:19:56.514Z,8.80
2023-02-24T10:22:51.879Z,8.70
2023-02-24T10:25:43.658Z,8.70
2023-02-24T10:28:35.677Z,8.80
2023-02-24T10:31:30.602Z,8.80
2023-02-24T10:34:08.218Z,8.90
2023-02-24T10:36:36.173Z,8.90
2023-02-24T10:39:16.265Z,8.80
2023-02-24T10:41:49.810Z,8.80
2023-02-24T10:44:25.801Z,8.80
2023-02-24T10:47:12.005Z,8.90
2023-02-24T10:49:50.737Z,8.70
2023-02-24T10:52:36.485Z,8.80
2023-02-24T10:55:28.130Z,8.90
2023-02-24T10:58:15.898Z,9.00
2023-02-24T11:01:00.981Z,9.00
2023-02-24T11:03:46.279Z,8.90
2023-02-24T11:06:52.986Z,9.00
2023-02-24T11:09:27.740Z,9.10
2023-02-24T11:12:18.868Z,9.20
2023-02-24T11:15:12.437Z,9.20
2023-02-24T11:18:06.828Z,8.90
2023-02-24T11:20:48.348Z,9.00
2023-02-24T11:23:25.875Z,9.10
2023-02-24T11:25:58.467Z,9.20
2023-02-24T11:28:44.127Z,9.00
2023-02-24T11:31:13.609Z,9.00
2023-02-24T11:33:57.541Z,9.00
2023-02-24T11:37:01.212Z,9.10
2023-02-24T11:39:40.359Z,9.10
2023-02-24T11:42:16.604Z,9.20
2023-02-24T11:44:56.518Z,9.30
2023-02-24T11:47:32.534Z,9.20
2023-02-24T11:50:17.900Z,9.10
2023-02-24T11:52:48.344Z,9.20
2023-02-24T11:55:36.155Z,9.30
2023-02-24T11:58:18.326Z,9.40
2023-02-24T12:00:57.819Z,9.50
2023-02-24T12:03:42.909Z,9.60
2023-02-24T12:06:18.508Z,9.80
2023-02-24T12:08:49.154Z,9.80
2023-02-24T12:11:32.928Z,9.70
2023-02-24T12:14:15.069Z,9.60
2023-02-24T12:16:47.371Z,9.70
2023-02-24T12:19:19.829Z,9.60
2023-02-24T12:21:55.332Z,9.60
2023-02-24T12:24:22.960Z,9.70
2023-02-24T12:27:06.172Z,9.70
2023-02-24T12:30:23.281Z,9.70
2023-02-24T12:33:28.467Z,9.60
2023-02-24T12:36:31.121Z,9.60
2023-02-24T12:39:11.568Z,9.50
2023-02-24T12:41:52.144Z,9.60
2023-02-24T12:44:43.363Z,9.60
2023-02-24T12:47:13.232Z,9.50
2023-02-24T12:49:40.303Z,9.50
2023-02-24T12:52:51.921Z,9.70
2023-02-24T12:55:27.952Z,9.90
2023-02-24T12:58:06.829Z,9.90
2023-02-24T13:00:40.508Z,9.80
2023-02-24T13:03:29.351Z,9.80
2023-02-24T13:06:06.355Z,10.00
2023-02-24T13:08:44.904Z,10.20
2023-02-24T13:11:33.345Z,10.60
2023-02-24T13:14:27.341Z,10.90
2023-02-24T13:17:26.830Z,11.10
2023-02-24T13:19:55.318Z,11.00
2023-02-24T13:22:32.251Z,10.90
2023-02-24T13:25:03.136Z,10.80
2023-02-24T13:27:35.169Z,10.60
2023-02-24T13:30:14.510Z,10.40
2023-02-24T13:32:45.322Z,10.40
2023-02-24T13:35:15.176Z,10.40
2023-02-24T13:37:44.556Z,10.50
2023-02-24T13:40:23.367Z,10.40
2023-02-24T13:42:59.357Z,10.40
2023-02-24T13:45:30.245Z,10.30
2023-02-24T13:48:15.749Z,10.20
2023-02-24T13:51:10.383Z,10.00
2023-02-24T13:54:04.477Z,10.10
2023-02-24T13:56:54.914Z,10.10
2023-02-24T13:59:53.014Z,10.10
2023-02-24T14:02:30.965Z,10.30
2023-02-24T14:05:03.341Z,10.20
2023-02-24T14:07:35.880Z,10.20
2023-02-24T14:10:06.233Z,10.30
2023-02-24T14:12:35.725Z,10.30
2023-02-24T14:15:04.444Z,10.40
2023-02-24T14:17:35.946Z,10.50
2023-02-24T14:20:14.432Z,10.30
2023-02-24T14:22:45.555Z,10.30
2023-02-24T14:25:12.936Z,10.20
2023-02-24T14:27:40.328Z,10.20
2023-02-24T14:30:08.009Z,10.20
2023-02-24T14:32:35.242Z,10.20
2023-02-24T14:35:02.025Z,10.00
2023-02-24T14:37:31.377Z,10.00
2023-02-24T14:40:00.122Z,10.10
2023-02-24T14:42:28.220Z,10.20
2023-02-24T14:44:57.972Z,10.10
2023-02-24T14:47:28.975Z,10.20
2023-02-24T14:50:02.405Z,10.10
2023-02-24T14:52:39.440Z,10.00
2023-02-24T14:55:16.039Z,10.00
2023-02-24T14:57:58.708Z,10.00
2023-02-24T15:00:31.539Z,10.10
2023-02-24T15:03:24.762Z,10.00
2023-02-24T15:05:55.534Z,9.90
2023-02-24T15:08:34.032Z,9.80
2023-02-24T15:11:05.432Z,9.90
2023-02-24T15:13:47.186Z,9.90
2023-02-24T15:16:21.153Z,9.80
2023-02-24T15:18:58.864Z,9.90
2023-02-24T15:21:32.994Z,9.80
2023-02-24T15:24:18.573Z,9.80
2023-02-24T15:26:54.637Z,9.70
2023-02-24T15:29:26.767Z,9.60
2023-02-24T15:32:00.172Z,9.60
2023-02-24T15:34:32.597Z,9.60
2023-02-24T15:37:04.487Z,9.50
2023-02-24T15:39:33.390Z,9.50
2023-02-24T15:42:22.227Z,9.50
2023-02-24T15:44:54.494Z,9.40
2023-02-24T15:47:29.994Z,9.40
2023-02-24T15:49:57.099Z,9.40
2023-02-24T15:52:28.048Z,9.30
2023-02-24T15:54:56.670Z,9.40
2023-02-24T15:57:23.704Z,9.40
2023-02-24T15:59:50.551Z,9.40
2023-02-24T16:02:20.623Z,9.40
2023-02-24T16:04:48.114Z,9.40
2023-02-24T16:07:29.417Z,9.40
2023-02-24T16:09:57.707Z,9.30
2023-02-24T16:12:29.367Z,9.40
2023-02-24T16:15:05.924Z,9.30
2023-02-24T16:17:36.209Z,9.40
2023-02-24T16:20:08.479Z,9.30
2023-02-24T16:22:35.686Z,9.30
2023-02-24T16:25:03.027Z,9.30
2023-02-24T16:27:30.053Z,9.40
2023-02-24T16:29:58.610Z,9.30
2023-02-24T16:32:27.076Z,9.30
2023-02-24T16:34:54.821Z,9.20
2023-02-24T16:37:28.187Z,9.30
2023-02-24T16:39:55.295Z,9.20
2023-02-24T16:42:22.413Z,9.10
2023-02-24T16:44:50.034Z,9.00
2023-02-24T16:47:24.401Z,9.10
2023-02-24T16:49:55.333Z,9.10
2023-02-24T16:52:23.507Z,9.00
2023-02-24T16:54:50.456Z,9.00
2023-02-24T16:57:17.242Z,9.10
2023-02-24T16:59:43.984Z,9.20
2023-02-24T17:02:21.664Z,11.20
2023-02-24T17:04:48.470Z,10.40
2023-02-24T17:07:16.172Z,9.70
2023-02-24T17:09:42.864Z,9.50
2023-02-24T17:12:13.321Z,9.40
2023-02-24T17:14:40.046Z,9.20
2023-02-24T17:17:06.779Z,9.20
2023-02-24T17:19:33.482Z,9.10
2023-02-24T17:22:00.215Z,9.00
2023-02-24T17:24:28.447Z,8.90
2023-02-24T17:26:58.737Z,8.90
2023-02-24T17:29:25.561Z,9.00
2023-02-24T17:31:52.433Z,9.00
2023-02-24T17:34:21.368Z,8.90
2023-02-24T17:36:48.082Z,8.90
2023-02-24T17:39:14.771Z,8.90
2023-02-24T17:41:41.515Z,8.90
2023-02-24T17:44:08.187Z,8.90
2023-02-24T17:46:34.932Z,8.80
2023-02-24T17:49:03.171Z,8.80
2023-02-24T17:51:29.912Z,8.50
2023-02-24T17:53:57.233Z,8.50
2023-02-24T17:56:24.269Z,8.40
2023-02-24T17:58:51.063Z,8.30
2023-02-24T18:01:17.863Z,8.30
2023-02-24T18:03:44.776Z,8.20
2023-02-24T18:06:13.254Z,8.10
2023-02-24T18:08:40.780Z,7.90
2023-02-24T18:11:09.852Z,7.90
2023-02-24T18:13:36.610Z,7.90
2023-02-24T18:16:09.891Z,7.90
2023-02-24T18:18:36.887Z,7.70
2023-02-24T18:21:05.567Z,7.40
2023-02-24T18:23:32.922Z,7.30
2023-02-24T18:26:04.181Z,7.30
2023-02-24T18:28:31.779Z,7.20
2023-02-24T18:31:00.476Z,7.10
2023-02-24T18:33:27.693Z,7.10
2023-02-24T18:35:59.405Z,7.10
2023-02-24T18:38:27.008Z,7.00
2023-02-24T18:41:12.729Z,6.90
2023-02-24T18:43:39.463Z,7.00
2023-02-24T18:46:09.071Z,6.80
2023-02-24T18:48:35.903Z,6.90
2023-02-24T18:51:03.527Z,7.00
2023-02-24T18:53:36.979Z,6.90
2023-02-24T18:56:12.859Z,6.80
2023-02-24T18:58:40.770Z,6.70
2023-02-24T19:01:13.374Z,6.80
2023-02-24T19:03:41.072Z,6.80
2023-02-24T19:06:09.041Z,6.60
2023-02-24T19:08:35.706Z,6.60
2023-02-24T19:11:17.595Z,6.50
2023-02-24T19:13:44.796Z,6.20
2023-02-24T19:16:11.531Z,6.30
2023-02-24T19:18:38.181Z,6.40
2023-02-24T19:21:07.281Z,6.20
2023-02-24T19:23:35.237Z,6.10
2023-02-24T19:26:02.064Z,6.20
2023-02-24T19:28:28.951Z,6.00
2023-02-24T19:30:55.855Z,6.00
2023-02-24T19:33:22.838Z,5.90
2023-02-24T19:35:52.232Z,5.90
2023-02-24T19:38:22.068Z,6.00
2023-02-24T19:40:48.819Z,5.90
2023-02-24T19:43:15.523Z,6.00
2023-02-24T19:45:42.875Z,6.10
2023-02-24T19:48:10.727Z,5.70
2023-02-24T19:50:40.830Z,5.70
2023-02-24T19:53:07.894Z,5.70
2023-02-24T19:55:34.822Z,5.60
2023-02-24T19:58:01.620Z,5.80
2023-02-24T20:00:28.376Z,5.80
2023-02-24T20:02:55.084Z,5.70
2023-02-24T20:05:22.158Z,5.70
2023-02-24T20:07:48.891Z,5.70
2023-02-24T20:10:17.016Z,5.70
2023-02-24T20:12:44.877Z,5.70
2023-02-24T20:15:12.148Z,5.60
2023-02-24T20:17:39.199Z,5.60
2023-02-24T20:20:06.703Z,5.60
2023-02-24T20:22:33.434Z,5.70
2023-02-24T20:25:00.175Z,5.60
2023-02-24T20:27:26.960Z,5.50
2023-02-24T20:29:56.125Z,5.50
2023-02-24T20:32:23.473Z,5.50
2023-02-24T20:34:50.512Z,5.30
2023-02-24T20:37:17.538Z,5.30
2023-02-24T20:39:44.258Z,5.30
2023-02-24T20:42:12.212Z,5.40
2023-02-24T20:44:39.001Z,5.30
2023-02-24T20:47:05.681Z,5.30
2023-02-24T20:49:32.974Z,5.40
2023-02-24T20:51:59.806Z,5.30
2023-02-24T20:54:26.677Z,5.40
2023-02-24T20:56:53.397Z,5.30
2023-02-24T20:59:24.089Z,5.30
2023-02-24T21:01:51.033Z,5.30
2023-02-24T21:04:20.635Z,5.40
2023-02-24T21:06:48.150Z,5.50
2023-02-24T21:09:16.249Z,5.50
2023-02-24T21:11:42.947Z,5.50
2023-02-24T21:14:17.651Z,5.60
2023-02-24T21:16:46.082Z,5.50
2023-02-24T21:19:13.097Z,5.60
2023-02-24T21:21:39.731Z,5.70
2023-02-24T21:24:06.866Z,5.70
2023-02-24T21:26:33.495Z,5.60
2023-02-24T21:29:00.327Z,5.60
2023-02-24T21:31:27.805Z,5.40
2023-02-24T21:33:55.443Z,5.50
2023-02-24T21:36:25.675Z,5.60
2023-02-24T21:38:53.555Z,5.70
2023-02-24T21:41:21.023Z,5.70
2023-02-24T21:43:51.372Z,5.60
2023-02-24T21:46:18.088Z,5.60
2023-02-24T21:48:45.113Z,5.50
2023-02-24T21:51:13.646Z,5.40
2023-02-24T21:53:43.485Z,5.40
2023-02-24T21:56:18.452Z,5.40
2023-02-24T21:58:47.758Z,5.50
2023-02-24T22:01:17.623Z,5.40
2023-02-24T22:03:45.258Z,5.40
2023-02-24T22:06:14.118Z,5.50
2023-02-24T22:12:28.252Z,5.40
2023-02-24T22:14:55.016Z,5.60
2023-02-24T22:17:21.640Z,5.50
2023-02-24T22:19:48.290Z,5.60
2023-02-24T22:22:15.022Z,5.50
2023-02-24T22:24:41.678Z,5.50
2023-02-24T22:27:08.302Z,5.50
2023-02-24T22:29:35.037Z,5.40
2023-02-24T22:32:01.791Z,5.50
2023-02-24T22:34:28.544Z,5.40
2023-02-24T22:36:55.216Z,5.50
2023-02-24T22:39:23.203Z,5.50
2023-02-24T22:41:51.473Z,5.40
2023-02-24T22:44:19.650Z,5.30
2023-02-24T22:46:47.011Z,5.30
2023-02-24T22:49:13.971Z,5.30
2023-02-24T22:51:42.193Z,5.40
2023-02-24T22:54:08.943Z,5.40
2023-02-24T22:56:35.631Z,5.40
2023-02-24T22:59:02.308Z,5.40
2023-02-24T23:01:31.846Z,5.40
2023-02-24T23:04:03.566Z,5.40
2023-02-24T23:06:30.968Z,5.40
2023-02-24T23:08:59.605Z,5.40
2023-02-24T23:11:36.096Z,5.40
2023-02-24T23:14:06.011Z,5.40
2023-02-24T23:16:34.713Z,5.30
2023-02-24T23:19:04.850Z,5.30
2023-02-24T23:21:35.612Z,5.40
2023-02-24T23:24:03.309Z,5.30
2023-02-24T23:26:44.815Z,5.30
2023-02-24T23:29:14.896Z,5.30
2023-02-24T23:31:42.178Z,5.30
2023-02-24T23:34:09.785Z,5.40
2023-02-24T23:36:38.820Z,5.40
2023-02-24T23:39:07.285Z,5.30
2023-02-24T23:41:34.893Z,5.40
2023-02-24T23:44:01.564Z,5.30
2023-02-24T23:46:28.724Z,5.40
2023-02-24T23:48:57.389Z,5.40
2023-02-24T23:51:24.349Z,5.40
2023-02-24T23:53:51.516Z,5.50
2023-02-24T23:56:24.279Z,5.40
2023-02-24T23:58:52.716Z,5.40
